sensor_id;sensor_type;location;lat;lon;timestamp;P1;durP1;ratioP1;P2;durP2;ratioP2
72358;SDS011;60317;48.880;-0.862;2023-04-07T00:00:25;2.80;;;1.25;;
72358;SDS011;60317;48.880;-0.862;2023-04-07T00:02:52;2.85;;;1.10;;
72358;SDS011;60317;48.880;-0.862;2023-04-07T00:05:20;2.60;;;1.10;;
72358;SDS011;60317;48.880;-0.862;2023-04-07T00:07:46;2.10;;;1.10;;
72358;SDS011;60317;48.880;-0.862;2023-04-07T00:10:21;4.45;;;1.55;;
72358;SDS011;60317;48.880;-0.862;2023-04-07T00:12:48;2.58;;;1.10;;
72358;SDS011;60317;48.880;-0.862;2023-04-07T00:15:15;2.97;;;1.05;;
72358;SDS011;60317;48.880;-0.862;2023-04-07T00:17:42;2.90;;;1.20;;
72358;SDS011;60317;48.880;-0.862;2023-04-07T00:20:08;2.30;;;1.00;;
72358;SDS011;60317;48.880;-0.862;2023-04-07T00:22:37;2.60;;;1.02;;
72358;SDS011;60317;48.880;-0.862;2023-04-07T00:25:03;3.30;;;1.10;;
72358;SDS011;60317;48.880;-0.862;2023-04-07T00:27:30;2.75;;;0.98;;
72358;SDS011;60317;48.880;-0.862;2023-04-07T00:29:57;2.70;;;1.00;;
72358;SDS011;60317;48.880;-0.862;2023-04-07T00:32:23;1.92;;;0.80;;
72358;SDS011;60317;48.880;-0.862;2023-04-07T00:34:50;2.78;;;1.00;;
72358;SDS011;60317;48.880;-0.862;2023-04-07T00:37:16;1.90;;;0.95;;
72358;SDS011;60317;48.880;-0.862;2023-04-07T00:39:44;2.63;;;1.10;;
72358;SDS011;60317;48.880;-0.862;2023-04-07T00:42:10;2.50;;;1.30;;
72358;SDS011;60317;48.880;-0.862;2023-04-07T00:44:37;2.28;;;0.90;;
72358;SDS011;60317;48.880;-0.862;2023-04-07T00:47:04;1.73;;;0.70;;
72358;SDS011;60317;48.880;-0.862;2023-04-07T00:49:30;2.70;;;1.13;;
72358;SDS011;60317;48.880;-0.862;2023-04-07T00:51:57;2.15;;;0.98;;
72358;SDS011;60317;48.880;-0.862;2023-04-07T00:54:23;2.47;;;0.95;;
72358;SDS011;60317;48.880;-0.862;2023-04-07T00:56:52;3.85;;;1.02;;
72358;SDS011;60317;48.880;-0.862;2023-04-07T00:59:18;2.85;;;1.10;;
72358;SDS011;60317;48.880;-0.862;2023-04-07T01:01:47;3.28;;;0.77;;
72358;SDS011;60317;48.880;-0.862;2023-04-07T01:04:21;1.45;;;0.80;;
72358;SDS011;60317;48.880;-0.862;2023-04-07T01:06:53;2.30;;;0.80;;
72358;SDS011;60317;48.880;-0.862;2023-04-07T01:09:24;3.28;;;1.17;;
72358;SDS011;60317;48.880;-0.862;2023-04-07T01:11:58;3.53;;;1.15;;
72358;SDS011;60317;48.880;-0.862;2023-04-07T01:14:32;3.58;;;1.10;;
72358;SDS011;60317;48.880;-0.862;2023-04-07T01:17:02;4.18;;;1.17;;
72358;SDS011;60317;48.880;-0.862;2023-04-07T01:19:33;2.45;;;0.88;;
72358;SDS011;60317;48.880;-0.862;2023-04-07T01:22:04;3.28;;;1.20;;
72358;SDS011;60317;48.880;-0.862;2023-04-07T01:24:41;2.97;;;1.23;;
72358;SDS011;60317;48.880;-0.862;2023-04-07T01:27:24;2.95;;;1.10;;
72358;SDS011;60317;48.880;-0.862;2023-04-07T01:30:02;3.65;;;1.15;;
72358;SDS011;60317;48.880;-0.862;2023-04-07T01:32:34;3.15;;;1.20;;
72358;SDS011;60317;48.880;-0.862;2023-04-07T01:35:01;1.80;;;1.05;;
72358;SDS011;60317;48.880;-0.862;2023-04-07T01:37:29;2.28;;;0.90;;
72358;SDS011;60317;48.880;-0.862;2023-04-07T01:39:58;3.05;;;1.00;;
72358;SDS011;60317;48.880;-0.862;2023-04-07T01:42:24;1.65;;;0.90;;
72358;SDS011;60317;48.880;-0.862;2023-04-07T01:44:52;2.25;;;0.90;;
72358;SDS011;60317;48.880;-0.862;2023-04-07T01:47:20;3.20;;;1.10;;
72358;SDS011;60317;48.880;-0.862;2023-04-07T01:49:47;3.40;;;0.80;;
72358;SDS011;60317;48.880;-0.862;2023-04-07T01:52:16;2.00;;;0.82;;
72358;SDS011;60317;48.880;-0.862;2023-04-07T01:54:42;2.15;;;0.88;;
72358;SDS011;60317;48.880;-0.862;2023-04-07T01:57:10;2.47;;;1.10;;
72358;SDS011;60317;48.880;-0.862;2023-04-07T01:59:37;2.10;;;0.90;;
72358;SDS011;60317;48.880;-0.862;2023-04-07T02:02:03;3.45;;;1.20;;
72358;SDS011;60317;48.880;-0.862;2023-04-07T02:04:33;2.13;;;0.90;;
72358;SDS011;60317;48.880;-0.862;2023-04-07T02:07:04;3.63;;;0.77;;
72358;SDS011;60317;48.880;-0.862;2023-04-07T02:09:34;5.25;;;0.93;;
72358;SDS011;60317;48.880;-0.862;2023-04-07T02:12:05;2.35;;;0.90;;
72358;SDS011;60317;48.880;-0.862;2023-04-07T02:14:34;2.45;;;0.88;;
72358;SDS011;60317;48.880;-0.862;2023-04-07T02:17:01;2.50;;;0.80;;
72358;SDS011;60317;48.880;-0.862;2023-04-07T02:19:29;1.30;;;0.80;;
72358;SDS011;60317;48.880;-0.862;2023-04-07T02:21:57;1.55;;;0.63;;
72358;SDS011;60317;48.880;-0.862;2023-04-07T02:24:25;1.88;;;0.80;;
72358;SDS011;60317;48.880;-0.862;2023-04-07T02:26:52;1.33;;;0.70;;
72358;SDS011;60317;48.880;-0.862;2023-04-07T02:29:18;2.35;;;1.02;;
72358;SDS011;60317;48.880;-0.862;2023-04-07T02:31:45;2.03;;;0.80;;
72358;SDS011;60317;48.880;-0.862;2023-04-07T02:34:11;1.88;;;0.73;;
72358;SDS011;60317;48.880;-0.862;2023-04-07T02:36:39;1.90;;;0.80;;
72358;SDS011;60317;48.880;-0.862;2023-04-07T02:39:06;1.80;;;1.00;;
72358;SDS011;60317;48.880;-0.862;2023-04-07T02:41:32;1.08;;;0.60;;
72358;SDS011;60317;48.880;-0.862;2023-04-07T02:43:58;2.72;;;0.80;;
72358;SDS011;60317;48.880;-0.862;2023-04-07T02:46:25;2.30;;;1.00;;
72358;SDS011;60317;48.880;-0.862;2023-04-07T02:48:52;1.17;;;0.63;;
72358;SDS011;60317;48.880;-0.862;2023-04-07T02:51:18;2.42;;;0.88;;
72358;SDS011;60317;48.880;-0.862;2023-04-07T02:53:46;1.33;;;0.88;;
72358;SDS011;60317;48.880;-0.862;2023-04-07T02:56:13;0.93;;;0.52;;
72358;SDS011;60317;48.880;-0.862;2023-04-07T02:58:40;1.02;;;0.60;;
72358;SDS011;60317;48.880;-0.862;2023-04-07T03:01:07;1.38;;;0.70;;
72358;SDS011;60317;48.880;-0.862;2023-04-07T03:03:33;2.05;;;0.80;;
72358;SDS011;60317;48.880;-0.862;2023-04-07T03:06:00;0.90;;;0.57;;
72358;SDS011;60317;48.880;-0.862;2023-04-07T03:08:26;1.90;;;1.00;;
72358;SDS011;60317;48.880;-0.862;2023-04-07T03:10:54;1.63;;;0.70;;
72358;SDS011;60317;48.880;-0.862;2023-04-07T03:13:21;1.92;;;0.90;;
72358;SDS011;60317;48.880;-0.862;2023-04-07T03:15:47;2.35;;;0.90;;
72358;SDS011;60317;48.880;-0.862;2023-04-07T03:18:14;0.65;;;0.52;;
72358;SDS011;60317;48.880;-0.862;2023-04-07T03:20:40;0.55;;;0.55;;
72358;SDS011;60317;48.880;-0.862;2023-04-07T03:23:07;0.85;;;0.55;;
72358;SDS011;60317;48.880;-0.862;2023-04-07T03:25:33;0.82;;;0.47;;
72358;SDS011;60317;48.880;-0.862;2023-04-07T03:28:01;0.85;;;0.52;;
72358;SDS011;60317;48.880;-0.862;2023-04-07T03:30:28;0.63;;;0.35;;
72358;SDS011;60317;48.880;-0.862;2023-04-07T03:32:54;1.60;;;0.80;;
72358;SDS011;60317;48.880;-0.862;2023-04-07T03:35:21;1.48;;;0.70;;
72358;SDS011;60317;48.880;-0.862;2023-04-07T03:37:47;1.17;;;0.70;;
72358;SDS011;60317;48.880;-0.862;2023-04-07T03:40:14;1.27;;;0.60;;
72358;SDS011;60317;48.880;-0.862;2023-04-07T03:42:40;0.75;;;0.52;;
72358;SDS011;60317;48.880;-0.862;2023-04-07T03:45:09;1.27;;;0.73;;
72358;SDS011;60317;48.880;-0.862;2023-04-07T03:47:36;0.98;;;0.43;;
72358;SDS011;60317;48.880;-0.862;2023-04-07T03:50:03;0.75;;;0.43;;
72358;SDS011;60317;48.880;-0.862;2023-04-07T03:52:30;0.40;;;0.35;;
72358;SDS011;60317;48.880;-0.862;2023-04-07T03:54:56;1.17;;;0.60;;
72358;SDS011;60317;48.880;-0.862;2023-04-07T03:57:23;0.65;;;0.57;;
72358;SDS011;60317;48.880;-0.862;2023-04-07T03:59:49;1.27;;;0.60;;
72358;SDS011;60317;48.880;-0.862;2023-04-07T04:02:17;1.13;;;0.60;;
72358;SDS011;60317;48.880;-0.862;2023-04-07T04:04:44;0.55;;;0.55;;
72358;SDS011;60317;48.880;-0.862;2023-04-07T04:07:11;0.40;;;0.35;;
72358;SDS011;60317;48.880;-0.862;2023-04-07T04:09:37;0.93;;;0.60;;
72358;SDS011;60317;48.880;-0.862;2023-04-07T04:12:04;0.43;;;0.43;;
72358;SDS011;60317;48.880;-0.862;2023-04-07T04:14:30;0.85;;;0.52;;
72358;SDS011;60317;48.880;-0.862;2023-04-07T04:16:57;0.40;;;0.40;;
72358;SDS011;60317;48.880;-0.862;2023-04-07T04:19:25;0.40;;;0.38;;
72358;SDS011;60317;48.880;-0.862;2023-04-07T04:21:51;0.60;;;0.55;;
72358;SDS011;60317;48.880;-0.862;2023-04-07T04:24:18;0.60;;;0.50;;
72358;SDS011;60317;48.880;-0.862;2023-04-07T04:26:44;1.10;;;0.60;;
72358;SDS011;60317;48.880;-0.862;2023-04-07T04:29:11;1.52;;;0.60;;
72358;SDS011;60317;48.880;-0.862;2023-04-07T04:31:37;0.52;;;0.45;;
72358;SDS011;60317;48.880;-0.862;2023-04-07T04:34:04;0.60;;;0.50;;
72358;SDS011;60317;48.880;-0.862;2023-04-07T04:36:31;0.73;;;0.43;;
72358;SDS011;60317;48.880;-0.862;2023-04-07T04:38:58;0.63;;;0.47;;
72358;SDS011;60317;48.880;-0.862;2023-04-07T04:41:24;1.05;;;0.68;;
72358;SDS011;60317;48.880;-0.862;2023-04-07T04:43:51;0.70;;;0.50;;
72358;SDS011;60317;48.880;-0.862;2023-04-07T04:46:17;0.80;;;0.65;;
72358;SDS011;60317;48.880;-0.862;2023-04-07T04:48:44;0.63;;;0.50;;
72358;SDS011;60317;48.880;-0.862;2023-04-07T04:51:10;1.13;;;0.50;;
72358;SDS011;60317;48.880;-0.862;2023-04-07T04:53:38;0.60;;;0.60;;
72358;SDS011;60317;48.880;-0.862;2023-04-07T04:56:05;1.58;;;0.60;;
72358;SDS011;60317;48.880;-0.862;2023-04-07T04:58:32;0.80;;;0.55;;
72358;SDS011;60317;48.880;-0.862;2023-04-07T05:00:59;2.25;;;0.70;;
72358;SDS011;60317;48.880;-0.862;2023-04-07T05:03:26;0.77;;;0.57;;
72358;SDS011;60317;48.880;-0.862;2023-04-07T05:05:53;0.60;;;0.50;;
72358;SDS011;60317;48.880;-0.862;2023-04-07T05:08:20;1.08;;;0.57;;
72358;SDS011;60317;48.880;-0.862;2023-04-07T05:10:48;0.88;;;0.60;;
72358;SDS011;60317;48.880;-0.862;2023-04-07T05:13:14;0.30;;;0.30;;
72358;SDS011;60317;48.880;-0.862;2023-04-07T05:15:41;0.70;;;0.60;;
72358;SDS011;60317;48.880;-0.862;2023-04-07T05:18:07;2.58;;;0.65;;
72358;SDS011;60317;48.880;-0.862;2023-04-07T05:20:34;0.95;;;0.60;;
72358;SDS011;60317;48.880;-0.862;2023-04-07T05:23:00;1.02;;;0.60;;
72358;SDS011;60317;48.880;-0.862;2023-04-07T05:25:27;11.55;;;1.90;;
72358;SDS011;60317;48.880;-0.862;2023-04-07T05:27:55;102.10;;;5.00;;
72358;SDS011;60317;48.880;-0.862;2023-04-07T05:30:22;77.20;;;4.97;;
72358;SDS011;60317;48.880;-0.862;2023-04-07T05:32:49;66.55;;;5.47;;
72358;SDS011;60317;48.880;-0.862;2023-04-07T05:35:15;74.65;;;5.20;;
72358;SDS011;60317;48.880;-0.862;2023-04-07T05:37:42;42.67;;;3.80;;
72358;SDS011;60317;48.880;-0.862;2023-04-07T05:40:09;54.85;;;4.43;;
72358;SDS011;60317;48.880;-0.862;2023-04-07T05:42:36;42.03;;;3.40;;
72358;SDS011;60317;48.880;-0.862;2023-04-07T05:45:04;44.60;;;3.60;;
72358;SDS011;60317;48.880;-0.862;2023-04-07T05:47:31;30.63;;;3.53;;
72358;SDS011;60317;48.880;-0.862;2023-04-07T05:49:57;36.75;;;2.97;;
72358;SDS011;60317;48.880;-0.862;2023-04-07T05:52:24;25.45;;;2.95;;
72358;SDS011;60317;48.880;-0.862;2023-04-07T05:54:50;19.50;;;2.35;;
72358;SDS011;60317;48.880;-0.862;2023-04-07T05:57:17;24.58;;;2.08;;
72358;SDS011;60317;48.880;-0.862;2023-04-07T05:59:43;16.98;;;2.20;;
72358;SDS011;60317;48.880;-0.862;2023-04-07T06:02:11;22.92;;;2.53;;
72358;SDS011;60317;48.880;-0.862;2023-04-07T06:04:38;14.82;;;2.25;;
72358;SDS011;60317;48.880;-0.862;2023-04-07T06:07:05;16.75;;;2.28;;
72358;SDS011;60317;48.880;-0.862;2023-04-07T06:09:32;13.65;;;1.98;;
72358;SDS011;60317;48.880;-0.862;2023-04-07T06:11:58;13.05;;;1.88;;
72358;SDS011;60317;48.880;-0.862;2023-04-07T06:14:25;8.65;;;1.88;;
72358;SDS011;60317;48.880;-0.862;2023-04-07T06:16:51;9.52;;;1.60;;
72358;SDS011;60317;48.880;-0.862;2023-04-07T06:19:19;13.55;;;2.10;;
72358;SDS011;60317;48.880;-0.862;2023-04-07T06:21:45;10.48;;;1.85;;
72358;SDS011;60317;48.880;-0.862;2023-04-07T06:24:12;10.80;;;1.58;;
72358;SDS011;60317;48.880;-0.862;2023-04-07T06:26:38;5.18;;;1.33;;
72358;SDS011;60317;48.880;-0.862;2023-04-07T06:29:05;9.65;;;1.55;;
72358;SDS011;60317;48.880;-0.862;2023-04-07T06:31:32;9.90;;;1.70;;
72358;SDS011;60317;48.880;-0.862;2023-04-07T06:33:58;9.40;;;1.75;;
72358;SDS011;60317;48.880;-0.862;2023-04-07T06:36:27;6.57;;;1.40;;
72358;SDS011;60317;48.880;-0.862;2023-04-07T06:38:53;7.63;;;1.45;;
72358;SDS011;60317;48.880;-0.862;2023-04-07T06:41:20;5.38;;;1.25;;
72358;SDS011;60317;48.880;-0.862;2023-04-07T06:43:48;3.80;;;1.38;;
72358;SDS011;60317;48.880;-0.862;2023-04-07T06:46:15;8.85;;;1.40;;
72358;SDS011;60317;48.880;-0.862;2023-04-07T06:48:42;7.68;;;1.30;;
72358;SDS011;60317;48.880;-0.862;2023-04-07T06:51:08;5.88;;;1.23;;
72358;SDS011;60317;48.880;-0.862;2023-04-07T06:53:36;6.22;;;1.33;;
72358;SDS011;60317;48.880;-0.862;2023-04-07T06:56:03;5.93;;;1.17;;
72358;SDS011;60317;48.880;-0.862;2023-04-07T06:58:31;5.05;;;1.40;;
72358;SDS011;60317;48.880;-0.862;2023-04-07T07:00:59;4.78;;;1.25;;
72358;SDS011;60317;48.880;-0.862;2023-04-07T07:03:25;4.03;;;1.17;;
72358;SDS011;60317;48.880;-0.862;2023-04-07T07:05:52;2.22;;;1.15;;
72358;SDS011;60317;48.880;-0.862;2023-04-07T07:08:19;2.63;;;1.20;;
72358;SDS011;60317;48.880;-0.862;2023-04-07T07:10:47;4.82;;;1.38;;
72358;SDS011;60317;48.880;-0.862;2023-04-07T07:13:14;3.70;;;1.13;;
72358;SDS011;60317;48.880;-0.862;2023-04-07T07:15:40;3.97;;;1.30;;
72358;SDS011;60317;48.880;-0.862;2023-04-07T07:18:07;2.00;;;1.10;;
72358;SDS011;60317;48.880;-0.862;2023-04-07T07:20:34;7.80;;;1.63;;
72358;SDS011;60317;48.880;-0.862;2023-04-07T07:23:00;19.45;;;2.53;;
72358;SDS011;60317;48.880;-0.862;2023-04-07T07:25:27;14.70;;;2.17;;
72358;SDS011;60317;48.880;-0.862;2023-04-07T07:27:54;11.40;;;2.00;;
72358;SDS011;60317;48.880;-0.862;2023-04-07T07:30:21;14.48;;;2.20;;
72358;SDS011;60317;48.880;-0.862;2023-04-07T07:32:49;14.85;;;2.13;;
72358;SDS011;60317;48.880;-0.862;2023-04-07T07:35:16;9.55;;;1.92;;
72358;SDS011;60317;48.880;-0.862;2023-04-07T07:37:42;11.02;;;2.47;;
72358;SDS011;60317;48.880;-0.862;2023-04-07T07:40:09;11.05;;;2.10;;
72358;SDS011;60317;48.880;-0.862;2023-04-07T07:42:36;5.53;;;1.85;;
72358;SDS011;60317;48.880;-0.862;2023-04-07T07:45:04;7.53;;;1.75;;
72358;SDS011;60317;48.880;-0.862;2023-04-07T07:47:31;10.20;;;1.80;;
72358;SDS011;60317;48.880;-0.862;2023-04-07T07:49:58;8.20;;;1.90;;
72358;SDS011;60317;48.880;-0.862;2023-04-07T07:52:25;4.43;;;1.60;;
72358;SDS011;60317;48.880;-0.862;2023-04-07T07:54:51;5.40;;;1.65;;
72358;SDS011;60317;48.880;-0.862;2023-04-07T07:57:18;2.83;;;1.42;;
72358;SDS011;60317;48.880;-0.862;2023-04-07T07:59:44;6.38;;;1.42;;
72358;SDS011;60317;48.880;-0.862;2023-04-07T08:02:12;3.60;;;1.67;;
72358;SDS011;60317;48.880;-0.862;2023-04-07T08:04:39;5.32;;;1.75;;
72358;SDS011;60317;48.880;-0.862;2023-04-07T08:07:05;7.00;;;1.88;;
72358;SDS011;60317;48.880;-0.862;2023-04-07T08:09:32;8.32;;;1.80;;
72358;SDS011;60317;48.880;-0.862;2023-04-07T08:11:59;8.75;;;1.50;;
72358;SDS011;60317;48.880;-0.862;2023-04-07T08:14:25;2.80;;;1.38;;
72358;SDS011;60317;48.880;-0.862;2023-04-07T08:16:52;5.07;;;1.55;;
72358;SDS011;60317;48.880;-0.862;2023-04-07T08:19:20;13.73;;;2.47;;
72358;SDS011;60317;48.880;-0.862;2023-04-07T08:21:47;48.90;;;4.05;;
72358;SDS011;60317;48.880;-0.862;2023-04-07T08:24:14;31.88;;;3.83;;
72358;SDS011;60317;48.880;-0.862;2023-04-07T08:26:42;26.42;;;3.42;;
72358;SDS011;60317;48.880;-0.862;2023-04-07T08:29:10;31.52;;;3.63;;
72358;SDS011;60317;48.880;-0.862;2023-04-07T08:31:38;26.65;;;4.88;;
72358;SDS011;60317;48.880;-0.862;2023-04-07T08:34:04;42.35;;;5.50;;
72358;SDS011;60317;48.880;-0.862;2023-04-07T08:36:32;26.20;;;4.18;;
72358;SDS011;60317;48.880;-0.862;2023-04-07T08:38:59;15.50;;;2.75;;
72358;SDS011;60317;48.880;-0.862;2023-04-07T08:41:26;24.30;;;3.13;;
72358;SDS011;60317;48.880;-0.862;2023-04-07T08:43:58;25.33;;;3.47;;
72358;SDS011;60317;48.880;-0.862;2023-04-07T08:46:26;25.55;;;4.00;;
72358;SDS011;60317;48.880;-0.862;2023-04-07T08:48:54;30.17;;;4.20;;
72358;SDS011;60317;48.880;-0.862;2023-04-07T08:51:37;13.88;;;3.05;;
72358;SDS011;60317;48.880;-0.862;2023-04-07T08:54:08;21.33;;;3.10;;
72358;SDS011;60317;48.880;-0.862;2023-04-07T08:56:35;14.27;;;2.60;;
72358;SDS011;60317;48.880;-0.862;2023-04-07T08:59:04;20.83;;;3.20;;
72358;SDS011;60317;48.880;-0.862;2023-04-07T09:01:31;10.25;;;2.60;;
72358;SDS011;60317;48.880;-0.862;2023-04-07T09:04:01;10.13;;;2.10;;
72358;SDS011;60317;48.880;-0.862;2023-04-07T09:06:28;11.70;;;2.28;;
72358;SDS011;60317;48.880;-0.862;2023-04-07T09:08:57;8.15;;;2.33;;
72358;SDS011;60317;48.880;-0.862;2023-04-07T09:11:24;7.80;;;1.80;;
72358;SDS011;60317;48.880;-0.862;2023-04-07T09:13:51;8.63;;;1.80;;
72358;SDS011;60317;48.880;-0.862;2023-04-07T09:16:18;5.55;;;2.00;;
72358;SDS011;60317;48.880;-0.862;2023-04-07T09:18:45;6.38;;;2.03;;
72358;SDS011;60317;48.880;-0.862;2023-04-07T09:21:12;9.38;;;1.90;;
72358;SDS011;60317;48.880;-0.862;2023-04-07T09:23:41;9.98;;;2.20;;
72358;SDS011;60317;48.880;-0.862;2023-04-07T09:26:19;5.93;;;2.22;;
72358;SDS011;60317;48.880;-0.862;2023-04-07T09:28:48;5.53;;;1.80;;
72358;SDS011;60317;48.880;-0.862;2023-04-07T09:31:18;8.85;;;1.75;;
72358;SDS011;60317;48.880;-0.862;2023-04-07T09:33:44;14.18;;;2.25;;
72358;SDS011;60317;48.880;-0.862;2023-04-07T09:36:11;10.70;;;1.90;;
72358;SDS011;60317;48.880;-0.862;2023-04-07T09:38:38;8.57;;;1.80;;
72358;SDS011;60317;48.880;-0.862;2023-04-07T09:41:06;8.00;;;1.70;;
72358;SDS011;60317;48.880;-0.862;2023-04-07T09:43:36;7.40;;;1.70;;
72358;SDS011;60317;48.880;-0.862;2023-04-07T09:46:07;11.13;;;1.85;;
72358;SDS011;60317;48.880;-0.862;2023-04-07T09:48:36;5.28;;;1.75;;
72358;SDS011;60317;48.880;-0.862;2023-04-07T09:51:04;7.22;;;1.30;;
72358;SDS011;60317;48.880;-0.862;2023-04-07T09:53:40;5.90;;;1.83;;
72358;SDS011;60317;48.880;-0.862;2023-04-07T09:56:07;5.22;;;1.50;;
72358;SDS011;60317;48.880;-0.862;2023-04-07T09:58:37;5.35;;;1.40;;
72358;SDS011;60317;48.880;-0.862;2023-04-07T10:01:05;5.25;;;1.40;;
72358;SDS011;60317;48.880;-0.862;2023-04-07T10:03:32;4.13;;;1.40;;
72358;SDS011;60317;48.880;-0.862;2023-04-07T10:05:59;9.02;;;1.70;;
72358;SDS011;60317;48.880;-0.862;2023-04-07T10:08:26;4.60;;;1.50;;
72358;SDS011;60317;48.880;-0.862;2023-04-07T10:10:53;4.57;;;1.33;;
72358;SDS011;60317;48.880;-0.862;2023-04-07T10:13:20;5.00;;;1.55;;
72358;SDS011;60317;48.880;-0.862;2023-04-07T10:15:48;4.28;;;1.35;;
72358;SDS011;60317;48.880;-0.862;2023-04-07T10:18:15;2.50;;;1.20;;
72358;SDS011;60317;48.880;-0.862;2023-04-07T10:20:43;1.95;;;1.10;;
72358;SDS011;60317;48.880;-0.862;2023-04-07T10:23:12;6.55;;;1.50;;
72358;SDS011;60317;48.880;-0.862;2023-04-07T10:25:44;3.60;;;1.33;;
72358;SDS011;60317;48.880;-0.862;2023-04-07T10:28:11;5.80;;;1.52;;
72358;SDS011;60317;48.880;-0.862;2023-04-07T10:30:39;11.15;;;1.38;;
72358;SDS011;60317;48.880;-0.862;2023-04-07T10:33:08;6.72;;;1.42;;
72358;SDS011;60317;48.880;-0.862;2023-04-07T10:38:26;5.68;;;1.30;;
72358;SDS011;60317;48.880;-0.862;2023-04-07T10:40:52;3.95;;;1.38;;
72358;SDS011;60317;48.880;-0.862;2023-04-07T10:46:03;2.42;;;1.10;;
72358;SDS011;60317;48.880;-0.862;2023-04-07T10:48:30;8.00;;;1.10;;
72358;SDS011;60317;48.880;-0.862;2023-04-07T10:53:38;6.78;;;1.48;;
72358;SDS011;60317;48.880;-0.862;2023-04-07T10:59:27;7.82;;;1.50;;
72358;SDS011;60317;48.880;-0.862;2023-04-07T11:02:02;10.13;;;1.55;;
72358;SDS011;60317;48.880;-0.862;2023-04-07T11:04:56;8.10;;;1.73;;
72358;SDS011;60317;48.880;-0.862;2023-04-07T11:07:42;9.77;;;1.52;;
72358;SDS011;60317;48.880;-0.862;2023-04-07T11:10:10;12.40;;;1.42;;
72358;SDS011;60317;48.880;-0.862;2023-04-07T11:12:38;5.22;;;1.70;;
72358;SDS011;60317;48.880;-0.862;2023-04-07T11:15:16;7.63;;;1.60;;
72358;SDS011;60317;48.880;-0.862;2023-04-07T11:17:44;6.07;;;1.38;;
72358;SDS011;60317;48.880;-0.862;2023-04-07T11:20:11;3.55;;;1.38;;
72358;SDS011;60317;48.880;-0.862;2023-04-07T11:22:38;9.13;;;1.58;;
72358;SDS011;60317;48.880;-0.862;2023-04-07T11:25:18;13.88;;;2.00;;
72358;SDS011;60317;48.880;-0.862;2023-04-07T11:27:45;17.25;;;2.00;;
72358;SDS011;60317;48.880;-0.862;2023-04-07T11:30:12;10.27;;;1.60;;
72358;SDS011;60317;48.880;-0.862;2023-04-07T11:32:41;15.93;;;1.80;;
72358;SDS011;60317;48.880;-0.862;2023-04-07T11:35:13;18.67;;;2.20;;
72358;SDS011;60317;48.880;-0.862;2023-04-07T11:37:39;21.60;;;1.92;;
72358;SDS011;60317;48.880;-0.862;2023-04-07T11:40:06;11.63;;;2.05;;
72358;SDS011;60317;48.880;-0.862;2023-04-07T11:42:33;10.43;;;1.83;;
72358;SDS011;60317;48.880;-0.862;2023-04-07T11:45:01;9.48;;;1.95;;
72358;SDS011;60317;48.880;-0.862;2023-04-07T11:47:35;14.65;;;2.60;;
72358;SDS011;60317;48.880;-0.862;2023-04-07T11:50:04;13.52;;;1.98;;
72358;SDS011;60317;48.880;-0.862;2023-04-07T11:52:39;6.43;;;1.80;;
72358;SDS011;60317;48.880;-0.862;2023-04-07T11:55:06;19.67;;;2.25;;
72358;SDS011;60317;48.880;-0.862;2023-04-07T11:57:42;8.65;;;2.10;;
72358;SDS011;60317;48.880;-0.862;2023-04-07T12:00:10;14.13;;;2.35;;
72358;SDS011;60317;48.880;-0.862;2023-04-07T12:02:37;8.20;;;1.83;;
72358;SDS011;60317;48.880;-0.862;2023-04-07T12:05:05;8.02;;;1.63;;
72358;SDS011;60317;48.880;-0.862;2023-04-07T12:07:33;14.45;;;2.10;;
72358;SDS011;60317;48.880;-0.862;2023-04-07T12:10:13;6.82;;;1.40;;
72358;SDS011;60317;48.880;-0.862;2023-04-07T12:15:10;7.93;;;1.70;;
72358;SDS011;60317;48.880;-0.862;2023-04-07T12:17:36;15.93;;;2.22;;
72358;SDS011;60317;48.880;-0.862;2023-04-07T12:20:03;9.77;;;1.90;;
72358;SDS011;60317;48.880;-0.862;2023-04-07T12:22:32;15.80;;;2.30;;
72358;SDS011;60317;48.880;-0.862;2023-04-07T12:24:59;9.60;;;1.80;;
72358;SDS011;60317;48.880;-0.862;2023-04-07T12:27:26;15.82;;;2.13;;
72358;SDS011;60317;48.880;-0.862;2023-04-07T12:30:07;17.15;;;2.38;;
72358;SDS011;60317;48.880;-0.862;2023-04-07T12:32:34;17.48;;;2.50;;
72358;SDS011;60317;48.880;-0.862;2023-04-07T12:35:00;8.52;;;1.63;;
72358;SDS011;60317;48.880;-0.862;2023-04-07T12:37:28;10.77;;;1.83;;
72358;SDS011;60317;48.880;-0.862;2023-04-07T12:39:54;7.50;;;1.58;;
72358;SDS011;60317;48.880;-0.862;2023-04-07T12:42:21;13.93;;;1.60;;
72358;SDS011;60317;48.880;-0.862;2023-04-07T12:44:47;10.05;;;1.80;;
72358;SDS011;60317;48.880;-0.862;2023-04-07T12:47:14;18.88;;;2.05;;
72358;SDS011;60317;48.880;-0.862;2023-04-07T12:49:40;17.38;;;1.80;;
72358;SDS011;60317;48.880;-0.862;2023-04-07T12:52:07;13.23;;;1.60;;
72358;SDS011;60317;48.880;-0.862;2023-04-07T12:54:35;17.52;;;1.80;;
72358;SDS011;60317;48.880;-0.862;2023-04-07T12:57:01;9.48;;;1.73;;
72358;SDS011;60317;48.880;-0.862;2023-04-07T12:59:28;13.45;;;1.77;;
72358;SDS011;60317;48.880;-0.862;2023-04-07T13:01:54;15.88;;;1.77;;
72358;SDS011;60317;48.880;-0.862;2023-04-07T13:04:21;14.05;;;2.47;;
72358;SDS011;60317;48.880;-0.862;2023-04-07T13:06:48;15.90;;;1.73;;
72358;SDS011;60317;48.880;-0.862;2023-04-07T13:09:15;12.93;;;1.85;;
72358;SDS011;60317;48.880;-0.862;2023-04-07T13:11:42;21.95;;;2.22;;
72358;SDS011;60317;48.880;-0.862;2023-04-07T13:14:09;11.45;;;1.70;;
72358;SDS011;60317;48.880;-0.862;2023-04-07T13:16:36;16.70;;;2.00;;
72358;SDS011;60317;48.880;-0.862;2023-04-07T13:19:02;15.32;;;1.60;;
72358;SDS011;60317;48.880;-0.862;2023-04-07T13:21:29;16.85;;;2.00;;
72358;SDS011;60317;48.880;-0.862;2023-04-07T13:23:58;10.80;;;1.52;;
72358;SDS011;60317;48.880;-0.862;2023-04-07T13:26:25;9.77;;;1.48;;
72358;SDS011;60317;48.880;-0.862;2023-04-07T13:28:52;9.27;;;1.75;;
72358;SDS011;60317;48.880;-0.862;2023-04-07T13:31:19;5.70;;;1.30;;
72358;SDS011;60317;48.880;-0.862;2023-04-07T13:33:46;7.95;;;1.20;;
72358;SDS011;60317;48.880;-0.862;2023-04-07T13:36:13;10.38;;;1.38;;
72358;SDS011;60317;48.880;-0.862;2023-04-07T13:38:39;10.25;;;1.40;;
72358;SDS011;60317;48.880;-0.862;2023-04-07T13:41:06;6.47;;;1.27;;
72358;SDS011;60317;48.880;-0.862;2023-04-07T13:43:32;12.30;;;1.60;;
72358;SDS011;60317;48.880;-0.862;2023-04-07T13:46:00;13.35;;;1.40;;
72358;SDS011;60317;48.880;-0.862;2023-04-07T13:48:26;13.05;;;1.40;;
72358;SDS011;60317;48.880;-0.862;2023-04-07T13:50:53;8.73;;;1.60;;
72358;SDS011;60317;48.880;-0.862;2023-04-07T13:53:19;8.52;;;1.60;;
72358;SDS011;60317;48.880;-0.862;2023-04-07T13:55:46;7.65;;;1.08;;
72358;SDS011;60317;48.880;-0.862;2023-04-07T13:58:12;8.55;;;1.60;;
72358;SDS011;60317;48.880;-0.862;2023-04-07T14:00:39;7.32;;;1.40;;
72358;SDS011;60317;48.880;-0.862;2023-04-07T14:03:07;9.02;;;1.33;;
72358;SDS011;60317;48.880;-0.862;2023-04-07T14:05:34;7.47;;;1.45;;
72358;SDS011;60317;48.880;-0.862;2023-04-07T14:08:00;4.57;;;1.10;;
72358;SDS011;60317;48.880;-0.862;2023-04-07T14:10:27;8.50;;;1.25;;
72358;SDS011;60317;48.880;-0.862;2023-04-07T14:12:53;6.43;;;1.00;;
72358;SDS011;60317;48.880;-0.862;2023-04-07T14:15:20;8.35;;;1.40;;
72358;SDS011;60317;48.880;-0.862;2023-04-07T14:17:46;5.00;;;1.20;;
72358;SDS011;60317;48.880;-0.862;2023-04-07T14:20:14;6.25;;;1.30;;
72358;SDS011;60317;48.880;-0.862;2023-04-07T14:22:41;3.13;;;1.02;;
72358;SDS011;60317;48.880;-0.862;2023-04-07T14:25:07;5.25;;;1.10;;
72358;SDS011;60317;48.880;-0.862;2023-04-07T14:27:34;8.57;;;1.85;;
72358;SDS011;60317;48.880;-0.862;2023-04-07T14:30:00;10.63;;;1.80;;
72358;SDS011;60317;48.880;-0.862;2023-04-07T14:32:27;19.65;;;1.85;;
72358;SDS011;60317;48.880;-0.862;2023-04-07T14:34:54;11.38;;;1.80;;
72358;SDS011;60317;48.880;-0.862;2023-04-07T14:37:21;9.13;;;1.35;;
72358;SDS011;60317;48.880;-0.862;2023-04-07T14:39:48;9.13;;;1.63;;
72358;SDS011;60317;48.880;-0.862;2023-04-07T14:42:27;6.22;;;1.38;;
72358;SDS011;60317;48.880;-0.862;2023-04-07T14:44:54;7.85;;;1.40;;
72358;SDS011;60317;48.880;-0.862;2023-04-07T14:47:20;11.50;;;1.58;;